createdAt,value
2019-04-11T00:00:25.843Z,7.02
2019-04-11T00:02:55.276Z,6.97
2019-04-11T00:05:23.712Z,6.83
2019-04-11T00:07:52.293Z,6.78
2019-04-11T00:10:20.983Z,6.71
2019-04-11T00:12:50.313Z,6.68
2019-04-11T00:15:20.026Z,6.59
2019-04-11T00:17:48.715Z,6.55
2019-04-11T00:20:18.060Z,6.56
2019-04-11T00:22:46.411Z,6.49
2019-04-11T00:25:15.680Z,6.47
2019-04-11T00:27:44.050Z,6.48
2019-04-11T00:30:12.979Z,6.43
2019-04-11T00:32:41.502Z,6.45
2019-04-11T00:35:11.188Z,6.36
2019-04-11T00:37:39.657Z,6.30
2019-04-11T00:40:08.965Z,6.27
2019-04-11T00:42:37.442Z,6.31
2019-04-11T00:45:07.424Z,6.23
2019-04-11T00:47:38.189Z,6.22
2019-04-11T00:50:07.417Z,6.27
2019-04-11T00:52:37.001Z,6.29
2019-04-11T00:55:07.058Z,6.31
2019-04-11T00:57:35.505Z,6.14
2019-04-11T01:00:06.862Z,6.19
2019-04-11T01:02:35.894Z,6.18
2019-04-11T01:05:05.769Z,6.20
2019-04-11T01:07:35.248Z,6.19
2019-04-11T01:10:06.658Z,6.02
2019-04-11T01:12:36.459Z,5.85
2019-04-11T01:15:08.513Z,5.76
2019-04-11T01:17:37.144Z,5.71
2019-04-11T01:20:07.289Z,5.63
2019-04-11T01:22:35.904Z,5.69
2019-04-11T01:25:06.659Z,5.67
2019-04-11T01:27:36.171Z,5.66
2019-04-11T01:30:08.581Z,5.54
2019-04-11T01:32:38.099Z,5.56
2019-04-11T01:35:06.891Z,5.49
2019-04-11T01:37:35.864Z,5.59
2019-04-11T01:40:05.519Z,5.58
2019-04-11T01:42:35.427Z,5.54
2019-04-11T01:45:05.344Z,5.43
2019-04-11T01:47:35.977Z,5.31
2019-04-11T01:50:06.339Z,5.32
2019-04-11T01:52:36.207Z,5.29
2019-04-11T01:55:05.243Z,5.28
2019-04-11T01:57:33.966Z,5.25
2019-04-11T02:00:02.488Z,5.18
2019-04-11T02:02:36.804Z,5.14
2019-04-11T02:05:21.608Z,5.06
2019-04-11T02:07:51.062Z,5.01
2019-04-11T02:10:20.958Z,4.96
2019-04-11T02:12:49.517Z,4.97
2019-04-11T02:15:18.055Z,4.94
2019-04-11T02:17:46.750Z,4.90
2019-04-11T02:20:16.642Z,4.81
2019-04-11T02:22:49.421Z,4.83
2019-04-11T02:25:24.984Z,4.81
2019-04-11T02:27:53.527Z,4.82
2019-04-11T02:30:22.804Z,4.77
2019-04-11T02:32:53.584Z,4.77
2019-04-11T02:35:23.798Z,4.67
2019-04-11T02:37:52.350Z,4.69
2019-04-11T02:40:24.162Z,4.65
2019-04-11T02:42:51.981Z,4.61
2019-04-11T02:45:31.294Z,4.59
2019-04-11T02:47:53.682Z,4.52
2019-04-11T02:50:23.831Z,4.52
2019-04-11T02:52:52.615Z,4.46
2019-04-11T02:55:21.760Z,4.45
2019-04-11T02:57:50.937Z,4.41
2019-04-11T03:00:20.542Z,4.45
2019-04-11T03:02:52.058Z,4.48
2019-04-11T03:05:20.814Z,4.47
2019-04-11T03:07:49.958Z,4.48
2019-04-11T03:10:18.860Z,4.42
2019-04-11T03:12:48.838Z,4.34
2019-04-11T03:15:33.324Z,4.34
2019-04-11T03:17:49.464Z,4.33
2019-04-11T03:20:26.606Z,4.26
2019-04-11T03:22:56.619Z,4.24
2019-04-11T03:28:36.427Z,4.22
2019-04-11T03:31:42.271Z,4.06
2019-04-11T03:37:00.191Z,4.02
2019-04-11T03:38:53.366Z,4.13
2019-04-11T03:41:23.599Z,4.17
2019-04-11T03:43:48.531Z,4.21
2019-04-11T03:46:25.038Z,4.34
2019-04-11T03:48:51.215Z,4.43
2019-04-11T03:51:10.944Z,4.45
2019-04-11T03:53:40.958Z,4.47
2019-04-11T03:56:09.939Z,4.42
2019-04-11T03:58:39.728Z,4.46
2019-04-11T04:01:11.515Z,4.36
2019-04-11T04:03:39.720Z,4.31
2019-04-11T04:06:08.919Z,4.24
2019-04-11T04:08:38.739Z,4.36
2019-04-11T04:11:14.700Z,4.51
2019-04-11T04:13:45.520Z,4.44
2019-04-11T04:16:24.483Z,4.33
2019-04-11T04:18:54.277Z,4.20
2019-04-11T04:21:42.926Z,4.22
2019-04-11T04:24:28.782Z,4.23
2019-04-11T04:26:59.937Z,4.33
2019-04-11T04:29:29.438Z,4.34
2019-04-11T04:31:59.510Z,4.33
2019-04-11T04:34:28.563Z,4.31
2019-04-11T04:36:57.907Z,4.27
2019-04-11T04:39:27.295Z,4.23
2019-04-11T04:42:05.832Z,4.23
2019-04-11T04:44:27.381Z,4.18
2019-04-11T04:47:12.289Z,4.08
2019-04-11T04:49:27.931Z,4.02
2019-04-11T04:51:56.326Z,4.03
2019-04-11T04:54:24.780Z,4.04
2019-04-11T04:56:54.526Z,3.92
2019-04-11T04:59:23.736Z,3.93
2019-04-11T05:01:53.272Z,3.93
2019-04-11T05:04:23.445Z,3.91
2019-04-11T05:06:53.042Z,3.94
2019-04-11T05:09:23.527Z,3.98
2019-04-11T05:11:53.124Z,4.03
2019-04-11T05:14:23.198Z,4.02
2019-04-11T05:16:52.552Z,4.04
2019-04-11T05:19:22.215Z,4.07
2019-04-11T05:21:52.045Z,4.07
2019-04-11T05:24:20.856Z,4.08
2019-04-11T05:26:50.336Z,4.10
2019-04-11T05:29:19.591Z,4.19
2019-04-11T05:31:49.124Z,4.24
2019-04-11T05:34:18.307Z,4.25
2019-04-11T05:36:47.164Z,4.27
2019-04-11T05:39:17.409Z,4.31
2019-04-11T05:41:47.146Z,4.37
2019-04-11T05:44:16.722Z,4.40
2019-04-11T05:46:52.324Z,4.41
2019-04-11T05:49:17.041Z,4.51
2019-04-11T05:51:47.592Z,4.50
2019-04-11T05:54:16.439Z,4.59
2019-04-11T05:56:48.696Z,4.63
2019-04-11T05:59:17.195Z,4.64
2019-04-11T06:01:48.830Z,4.63
2019-04-11T06:04:24.134Z,4.65
2019-04-11T06:06:58.352Z,4.78
2019-04-11T06:09:32.967Z,4.58
2019-04-11T06:12:09.484Z,5.01
2019-04-11T06:14:39.790Z,5.24
2019-04-11T06:17:09.789Z,5.38
2019-04-11T06:19:50.050Z,5.54
2019-04-11T06:22:19.824Z,5.71
2019-04-11T06:24:52.732Z,5.93
2019-04-11T06:27:24.108Z,6.27
2019-04-11T06:29:54.909Z,6.53
2019-04-11T06:32:43.681Z,6.79
2019-04-11T06:35:13.974Z,7.11
2019-04-11T06:38:00.706Z,7.49
2019-04-11T06:40:34.703Z,7.70
2019-04-11T06:43:13.961Z,8.14
2019-04-11T06:45:49.776Z,8.29
2019-04-11T06:48:22.258Z,8.32
2019-04-11T06:50:57.667Z,8.58
2019-04-11T06:53:28.113Z,8.86
2019-04-11T06:56:04.107Z,9.28
2019-04-11T06:58:46.210Z,9.59
2019-04-11T07:01:16.309Z,9.85
2019-04-11T07:03:46.912Z,9.92
2019-04-11T07:06:19.873Z,10.14
2019-04-11T07:08:58.948Z,10.45
2019-04-11T07:11:29.046Z,10.56
2019-04-11T07:14:12.454Z,10.90
2019-04-11T07:16:42.606Z,11.08
2019-04-11T07:19:24.663Z,11.37
2019-04-11T07:21:54.357Z,11.61
2019-04-11T07:24:30.582Z,11.59
2019-04-11T07:27:00.954Z,11.80
2019-04-11T07:29:34.025Z,11.79
2019-04-11T07:32:04.859Z,12.34
2019-04-11T07:34:36.173Z,12.72
2019-04-11T07:37:23.622Z,12.75
2019-04-11T07:40:10.399Z,12.84
2019-04-11T07:42:52.968Z,13.05
2019-04-11T07:45:23.255Z,13.23
2019-04-11T07:47:56.350Z,13.47
2019-04-11T07:50:26.138Z,13.78
2019-04-11T07:52:56.317Z,14.03
2019-04-11T07:55:25.838Z,14.22
2019-04-11T07:58:13.149Z,14.39
2019-04-11T08:00:49.974Z,14.35
2019-04-11T08:03:27.738Z,14.73
2019-04-11T08:06:00.874Z,15.08
2019-04-11T08:08:36.958Z,15.42
2019-04-11T08:11:13.574Z,15.26
2019-04-11T08:13:47.159Z,15.47
2019-04-11T08:16:22.972Z,15.35
2019-04-11T08:18:59.310Z,15.74
2019-04-11T08:21:46.158Z,16.08
2019-04-11T08:24:29.860Z,16.13
2019-04-11T08:27:09.517Z,16.71
2019-04-11T08:29:38.250Z,16.78
2019-04-11T08:32:11.702Z,16.98
2019-04-11T08:34:47.916Z,16.71
2019-04-11T08:37:33.729Z,16.76
2019-04-11T08:40:03.897Z,16.54
2019-04-11T08:42:50.752Z,17.05
2019-04-11T08:45:19.871Z,17.43
2019-04-11T08:47:54.353Z,17.87
2019-04-11T08:50:22.710Z,17.89
2019-04-11T08:52:54.132Z,17.62
2019-04-11T08:55:24.363Z,17.95
2019-04-11T08:57:54.505Z,18.68
2019-04-11T09:00:42.718Z,18.95
2019-04-11T09:03:13.463Z,19.07
2019-04-11T09:06:02.749Z,19.17
2019-04-11T09:08:49.475Z,19.35
2019-04-11T09:11:22.520Z,19.20
2019-04-11T09:14:08.160Z,19.09
2019-04-11T09:16:44.255Z,18.82
2019-04-11T09:19:23.618Z,19.33
2019-04-11T09:22:11.513Z,19.80
2019-04-11T09:24:43.318Z,19.07
2019-04-11T09:27:31.194Z,19.04
2019-04-11T09:30:04.444Z,19.53
2019-04-11T09:32:40.401Z,19.91
2019-04-11T09:35:27.022Z,19.73
2019-04-11T09:37:57.909Z,19.97
2019-04-11T09:40:37.032Z,20.43
2019-04-11T09:43:11.393Z,20.95
2019-04-11T09:45:57.860Z,20.81
2019-04-11T09:48:37.816Z,20.35
2019-04-11T09:51:26.485Z,19.94
2019-04-11T09:54:12.828Z,19.88
2019-04-11T09:57:00.126Z,19.69
2019-04-11T09:59:33.475Z,20.60
2019-04-11T10:02:20.910Z,20.99
2019-04-11T10:04:52.171Z,20.83
2019-04-11T10:07:38.583Z,21.09
2019-04-11T10:10:08.912Z,21.21
2019-04-11T10:12:56.225Z,20.92
2019-04-11T10:15:27.207Z,21.26
2019-04-11T10:18:23.247Z,21.29
2019-04-11T10:20:44.631Z,21.45
2019-04-11T10:23:25.025Z,21.54
2019-04-11T10:25:55.839Z,21.38
2019-04-11T10:28:27.144Z,20.71
2019-04-11T10:30:57.964Z,20.97
2019-04-11T10:33:33.609Z,20.10
2019-04-11T10:36:21.603Z,20.82
2019-04-11T10:39:00.617Z,20.87
2019-04-11T10:41:30.702Z,20.57
2019-04-11T10:43:59.458Z,21.03
2019-04-11T10:46:33.294Z,20.73
2019-04-11T10:49:03.617Z,19.36
2019-04-11T10:51:45.698Z,18.97
2019-04-11T10:54:15.553Z,20.09
2019-04-11T10:56:45.826Z,20.74
2019-04-11T10:59:15.489Z,20.77
2019-04-11T11:02:04.490Z,21.26
2019-04-11T11:04:34.847Z,21.18
2019-04-11T11:07:05.003Z,21.76
2019-04-11T11:09:36.785Z,21.89
2019-04-11T11:12:19.468Z,20.83
2019-04-11T11:14:49.668Z,20.87
2019-04-11T11:17:52.659Z,21.56
2019-04-11T11:20:33.725Z,21.96
2019-04-11T11:22:58.055Z,22.10
2019-04-11T11:25:28.098Z,21.28
2019-04-11T11:27:56.533Z,21.34
2019-04-11T11:30:39.941Z,21.96
2019-04-11T11:33:11.349Z,22.23
2019-04-11T11:35:50.296Z,22.84
2019-04-11T11:38:23.986Z,22.07
2019-04-11T11:41:10.648Z,21.67
2019-04-11T11:43:39.205Z,21.39
2019-04-11T11:46:10.076Z,21.14
2019-04-11T11:48:46.404Z,20.37
2019-04-11T11:51:23.886Z,20.64
2019-04-11T11:53:55.510Z,21.43
2019-04-11T11:56:24.238Z,21.90
2019-04-11T11:59:13.314Z,21.31
2019-04-11T12:01:49.329Z,20.89
2019-04-11T12:04:36.424Z,20.64
2019-04-11T12:07:07.154Z,19.86
2019-04-11T12:09:55.064Z,19.34
2019-04-11T12:12:25.188Z,19.77
2019-04-11T12:15:14.186Z,19.97
2019-04-11T12:17:59.650Z,20.31
2019-04-11T12:20:44.728Z,20.95
2019-04-11T12:23:19.657Z,21.16
2019-04-11T12:25:49.380Z,21.26
2019-04-11T12:28:25.677Z,21.33
2019-04-11T12:31:00.692Z,21.38
2019-04-11T12:33:43.861Z,20.91
2019-04-11T12:36:14.647Z,20.97
2019-04-11T12:39:01.077Z,20.70
2019-04-11T12:41:31.120Z,20.85
2019-04-11T12:44:07.113Z,20.97
2019-04-11T12:46:43.162Z,20.58
2019-04-11T12:49:13.494Z,20.54
2019-04-11T12:51:59.717Z,20.96
2019-04-11T12:54:29.845Z,21.39
2019-04-11T12:56:59.929Z,21.55
2019-04-11T12:59:28.366Z,21.92
2019-04-11T13:02:04.380Z,21.91
2019-04-11T13:04:32.781Z,21.98
2019-04-11T13:07:08.789Z,21.52
2019-04-11T13:09:50.494Z,21.41
2019-04-11T13:12:29.732Z,20.97
2019-04-11T13:15:05.864Z,21.29
2019-04-11T13:17:35.909Z,21.43
2019-04-11T13:20:23.938Z,21.32
2019-04-11T13:22:53.992Z,21.66
2019-04-11T13:25:24.034Z,21.61
2019-04-11T13:27:54.089Z,21.30
2019-04-11T13:30:29.873Z,20.41
2019-04-11T13:32:58.612Z,20.40
2019-04-11T13:35:45.338Z,20.52
2019-04-11T13:38:17.861Z,20.44
2019-04-11T13:40:48.223Z,19.95
2019-04-11T13:43:21.281Z,19.96
2019-04-11T13:46:03.454Z,20.06
2019-04-11T13:48:48.964Z,20.07
2019-04-11T13:51:31.241Z,19.94
2019-04-11T13:54:18.164Z,20.21
2019-04-11T13:56:57.386Z,20.00
2019-04-11T13:59:36.450Z,20.27
2019-04-11T14:02:07.951Z,20.18
2019-04-11T14:04:50.357Z,20.11
2019-04-11T14:07:21.281Z,19.98
2019-04-11T14:10:05.362Z,19.71
2019-04-11T14:12:34.132Z,19.64
2019-04-11T14:15:06.247Z,19.44
2019-04-11T14:17:44.784Z,19.44
2019-04-11T14:20:29.311Z,19.66
2019-04-11T14:23:03.912Z,19.58
2019-04-11T14:25:40.397Z,19.43
2019-04-11T14:28:10.477Z,19.21
2019-04-11T14:30:40.611Z,19.17
2019-04-11T14:33:09.180Z,19.07
2019-04-11T14:35:39.223Z,18.78
2019-04-11T14:38:12.257Z,18.96
2019-04-11T14:41:01.569Z,18.84
2019-04-11T14:43:26.031Z,18.79
2019-04-11T14:45:56.239Z,18.63
2019-04-11T14:48:41.158Z,18.78
2019-04-11T14:51:15.984Z,18.74
2019-04-11T14:53:52.720Z,18.63
2019-04-11T14:56:31.860Z,18.54
2019-04-11T14:59:18.284Z,18.51
2019-04-11T15:01:48.618Z,18.43
2019-04-11T15:04:18.665Z,18.22
2019-04-11T15:06:51.518Z,18.40
2019-04-11T15:09:37.665Z,18.68
2019-04-11T15:12:11.228Z,18.39
2019-04-11T15:14:51.513Z,18.22
2019-04-11T15:17:24.134Z,17.97
2019-04-11T15:20:10.182Z,18.12
2019-04-11T15:22:46.157Z,18.10
2019-04-11T15:25:28.442Z,18.04
2019-04-11T15:28:14.899Z,17.99
2019-04-11T15:30:48.531Z,17.49
2019-04-11T15:33:16.771Z,17.98
2019-04-11T15:35:46.812Z,17.87
2019-04-11T15:38:33.311Z,17.92
2019-04-11T15:41:03.330Z,17.98
2019-04-11T15:43:49.770Z,17.62
2019-04-11T15:46:23.095Z,17.38
2019-04-11T15:49:20.499Z,17.20
2019-04-11T15:51:42.803Z,16.96
2019-04-11T15:54:15.677Z,16.47
2019-04-11T15:57:00.986Z,16.57
2019-04-11T15:59:43.778Z,16.57
2019-04-11T16:02:27.760Z,16.54
2019-04-11T16:05:01.926Z,16.39
2019-04-11T16:07:49.322Z,16.28
2019-04-11T16:10:19.428Z,16.14
2019-04-11T16:12:52.526Z,15.94
2019-04-11T16:15:23.328Z,15.65
2019-04-11T16:18:09.404Z,15.25
2019-04-11T16:20:37.813Z,15.45
2019-04-11T16:23:26.974Z,15.40
2019-04-11T16:25:55.380Z,15.36
2019-04-11T16:28:25.497Z,15.46
2019-04-11T16:30:57.697Z,15.40
2019-04-11T16:33:46.730Z,15.20
2019-04-11T16:36:16.953Z,15.09
2019-04-11T16:38:55.844Z,15.03
2019-04-11T16:41:42.157Z,14.94
2019-04-11T16:44:28.436Z,14.71
2019-04-11T16:47:01.397Z,14.70
2019-04-11T16:49:29.917Z,14.56
2019-04-11T16:51:58.369Z,14.49
2019-04-11T16:54:26.884Z,14.54
2019-04-11T16:56:55.313Z,14.58
2019-04-11T16:59:23.721Z,14.48
2019-04-11T17:01:53.887Z,14.27
2019-04-11T17:04:25.800Z,14.19
2019-04-11T17:07:10.529Z,14.02
2019-04-11T17:09:40.599Z,13.73
2019-04-11T17:12:09.107Z,13.63
2019-04-11T17:14:37.513Z,13.59
2019-04-11T17:17:14.825Z,13.42
2019-04-11T17:19:36.878Z,13.27
2019-04-11T17:22:05.431Z,13.14
2019-04-11T17:24:33.821Z,13.02
2019-04-11T17:27:02.242Z,12.91
2019-04-11T17:29:30.655Z,12.77
2019-04-11T17:31:59.064Z,12.70
2019-04-11T17:34:27.461Z,12.58
2019-04-11T17:36:55.970Z,12.48
2019-04-11T17:39:24.370Z,12.36
2019-04-11T17:41:52.790Z,12.22
2019-04-11T17:44:21.291Z,12.06
2019-04-11T17:46:49.723Z,11.96
2019-04-11T17:49:18.144Z,11.81
2019-04-11T17:51:55.866Z,11.74
2019-04-11T17:54:16.782Z,11.62
2019-04-11T17:56:45.203Z,11.59
2019-04-11T17:59:14.044Z,11.49
2019-04-11T18:01:42.484Z,11.36
2019-04-11T18:04:13.225Z,10.97
2019-04-11T18:06:41.086Z,10.97
2019-04-11T18:09:11.239Z,10.94
2019-04-11T18:11:40.117Z,10.82
2019-04-11T18:14:08.562Z,10.74
2019-04-11T18:16:37.061Z,10.61
2019-04-11T18:19:06.577Z,10.50
2019-04-11T18:21:37.187Z,10.25
2019-04-11T18:24:06.042Z,10.25
2019-04-11T18:26:34.476Z,10.09
2019-04-11T18:29:03.101Z,10.09
2019-04-11T18:31:31.594Z,9.94
2019-04-11T18:34:02.447Z,9.77
2019-04-11T18:36:32.059Z,9.69
2019-04-11T18:39:05.583Z,9.62
2019-04-11T18:41:30.591Z,9.51
2019-04-11T18:43:59.112Z,9.35
2019-04-11T18:46:27.588Z,9.25
2019-04-11T18:48:55.995Z,9.17
2019-04-11T18:51:24.478Z,9.10
2019-04-11T18:53:52.893Z,8.95
2019-04-11T18:56:21.294Z,8.85
2019-04-11T18:58:49.712Z,8.88
2019-04-11T19:01:18.923Z,8.79
2019-04-11T19:03:47.393Z,8.60
2019-04-11T19:06:27.241Z,8.52
2019-04-11T19:08:46.280Z,8.42
2019-04-11T19:11:15.786Z,8.26
2019-04-11T19:13:46.968Z,8.18
2019-04-11T19:16:16.116Z,8.08
2019-04-11T19:18:47.725Z,7.67
2019-04-11T19:21:15.405Z,7.96
2019-04-11T19:23:45.122Z,7.95
2019-04-11T19:26:14.751Z,7.10
2019-04-11T19:28:43.607Z,7.93
2019-04-11T19:31:12.400Z,7.92
2019-04-11T19:33:41.039Z,7.90
2019-04-11T19:36:09.993Z,7.84
2019-04-11T19:38:43.020Z,7.83
2019-04-11T19:41:09.773Z,7.80
2019-04-11T19:43:40.638Z,7.78
2019-04-11T19:46:08.337Z,7.80
2019-04-11T19:48:36.772Z,7.75
2019-04-11T19:51:05.177Z,7.73
2019-04-11T19:53:33.631Z,7.75
2019-04-11T19:56:05.403Z,7.42
2019-04-11T19:58:33.936Z,7.43
2019-04-11T20:03:35.016Z,7.67
2019-04-11T20:06:03.459Z,7.71
2019-04-11T20:08:31.937Z,7.76
2019-04-11T20:11:01.307Z,7.79
2019-04-11T20:13:32.343Z,7.80
2019-04-11T20:16:00.646Z,7.83
2019-04-11T20:18:29.070Z,7.81
2019-04-11T20:20:57.476Z,7.77
2019-04-11T20:23:25.900Z,7.67
2019-04-11T20:25:54.325Z,7.60
2019-04-11T20:28:22.717Z,7.56
2019-04-11T20:30:51.135Z,7.55
2019-04-11T20:33:26.919Z,7.54
2019-04-11T20:35:49.680Z,7.44
2019-04-11T20:38:18.104Z,7.40
2019-04-11T20:40:46.600Z,7.32
2019-04-11T20:43:15.012Z,7.27
2019-04-11T20:45:44.215Z,7.21
2019-04-11T20:48:12.615Z,7.17
2019-04-11T20:50:41.030Z,7.13
2019-04-11T20:53:12.824Z,7.11
2019-04-11T20:55:40.002Z,7.08
2019-04-11T20:58:10.430Z,6.98
2019-04-11T21:00:49.608Z,7.00
2019-04-11T21:03:09.138Z,6.97
2019-04-11T21:05:37.629Z,6.33
2019-04-11T21:08:06.240Z,6.84
2019-04-11T21:10:34.659Z,6.82
2019-04-11T21:13:06.820Z,6.77
2019-04-11T21:15:33.307Z,6.71
2019-04-11T21:18:01.716Z,6.68
2019-04-11T21:20:30.148Z,6.60
2019-04-11T21:22:58.566Z,6.59
2019-04-11T21:25:28.490Z,6.57
2019-04-11T21:27:59.113Z,6.53
2019-04-11T21:30:27.997Z,6.49
2019-04-11T21:32:57.836Z,6.37
2019-04-11T21:35:26.258Z,6.34
2019-04-11T21:37:55.151Z,6.32
2019-04-11T21:40:23.667Z,6.27
2019-04-11T21:42:52.158Z,6.26
2019-04-11T21:45:20.556Z,6.17
2019-04-11T21:47:48.956Z,6.15
2019-04-11T21:50:17.439Z,6.08
2019-04-11T21:52:45.916Z,6.07
2019-04-11T21:55:16.048Z,6.02
2019-04-11T21:57:48.567Z,5.92
2019-04-11T22:00:24.848Z,5.89
2019-04-11T22:02:54.498Z,5.87
2019-04-11T22:05:23.752Z,5.79
2019-04-11T22:07:52.173Z,5.77
2019-04-11T22:10:20.588Z,5.73
2019-04-11T22:12:49.073Z,5.71
2019-04-11T22:15:17.552Z,5.64
2019-04-11T22:17:46.184Z,5.63
2019-04-11T22:20:16.677Z,5.63
2019-04-11T22:22:44.920Z,5.53
2019-04-11T22:25:13.452Z,5.55
2019-04-11T22:27:42.051Z,5.46
2019-04-11T22:30:10.917Z,5.52
2019-04-11T22:32:41.266Z,5.46
2019-04-11T22:35:09.764Z,5.35
2019-04-11T22:37:38.199Z,5.29
2019-04-11T22:40:07.800Z,5.29
2019-04-11T22:42:36.185Z,5.26
2019-04-11T22:45:05.963Z,5.25
2019-04-11T22:47:35.904Z,5.24
2019-04-11T22:50:09.886Z,5.27
2019-04-11T22:52:36.272Z,5.23
2019-04-11T22:55:06.002Z,5.21
2019-04-11T22:57:34.431Z,5.19
2019-04-11T23:00:02.834Z,5.17
2019-04-11T23:02:32.881Z,5.13
2019-04-11T23:05:01.285Z,5.10
2019-04-11T23:07:29.717Z,5.05
2019-04-11T23:09:58.116Z,5.04
2019-04-11T23:12:26.534Z,4.98
2019-04-11T23:14:54.956Z,4.88
2019-04-11T23:17:23.369Z,4.88
2019-04-11T23:19:51.794Z,4.81
2019-04-11T23:22:20.258Z,4.77
2019-04-11T23:24:48.688Z,4.82
2019-04-11T23:27:17.085Z,4.76
2019-04-11T23:29:47.093Z,4.78
2019-04-11T23:32:15.665Z,4.72
2019-04-11T23:34:44.318Z,4.75
2019-04-11T23:37:12.719Z,4.70
2019-04-11T23:39:41.223Z,4.70
2019-04-11T23:42:09.634Z,4.71
2019-04-11T23:44:38.049Z,4.71
2019-04-11T23:47:06.457Z,4.69
2019-04-11T23:49:34.868Z,4.62
2019-04-11T23:52:03.373Z,4.66
2019-04-11T23:54:31.783Z,4.61
2019-04-11T23:57:00.939Z,4.60
2019-04-11T23:59:32.128Z,4.66
